Time;durP1;ratioP1;P1;durP2;ratioP2;P2;SDS_P1;SDS_P2;PMS_P1;PMS_P2;Temp;Humidity;BMP_temperature;BMP_pressure;BME280_temperature;BME280_humidity;BME280_pressure;Samples;Min_cycle;Max_cycle;Signal;HPM_P1;HPM_P2
2024/04/16 00:00:29;;;;;;;12.07;2.70;;;10.00;93.70;;;;;;4194478;28;20508;-61
2024/04/16 00:02:30;;;;;;;3.28;1.27;;;9.90;93.40;;;;;;4197576;28;20055;-60
2024/04/16 00:04:31;;;;;;;2.67;1.10;;;10.00;93.70;;;;;;4187792;28;20044;-60
2024/04/16 00:06:32;;;;;;;1.50;1.23;;;10.00;93.50;;;;;;4198982;28;20048;-60
2024/04/16 00:08:33;;;;;;;0.70;0.20;;;10.10;94.00;;;;;;4193213;28;20507;-60
2024/04/16 00:10:36;;;;;;;0.47;0.40;;;10.00;93.70;;;;;;4191451;28;20044;-59
2024/04/16 00:12:37;;;;;;;1.38;0.68;;;9.90;93.70;;;;;;4198553;28;20122;-60
2024/04/16 00:14:38;;;;;;;2.70;0.50;;;10.00;94.70;;;;;;4186240;28;20128;-59
2024/04/16 00:16:40;;;;;;;2.15;0.73;;;10.00;93.80;;;;;;4198280;28;20044;-60
2024/04/16 00:18:41;;;;;;;3.67;0.40;;;9.90;93.70;;;;;;4194742;28;20051;-60
2024/04/16 00:20:42;;;;;;;2.13;0.40;;;9.80;93.70;;;;;;4189328;28;20402;-60
2024/04/16 00:22:43;;;;;;;2.03;0.95;;;9.80;94.00;;;;;;4198189;28;20136;-60
2024/04/16 00:24:44;;;;;;;3.72;1.00;;;9.80;94.00;;;;;;4193882;28;20076;-60
2024/04/16 00:26:47;;;;;;;0.55;0.47;;;9.70;93.80;;;;;;4183203;28;20045;-59
2024/04/16 00:28:48;;;;;;;0.98;0.47;;;9.70;94.10;;;;;;4182861;28;20487;-60
2024/04/16 00:30:49;;;;;;;1.55;0.50;;;9.70;93.90;;;;;;4192889;28;20045;-60
2024/04/16 00:32:50;;;;;;;0.50;0.30;;;9.70;94.30;;;;;;4181531;28;20419;-59
2024/04/16 00:34:51;;;;;;;0.50;0.25;;;9.80;94.10;;;;;;4190065;28;20051;-60
2024/04/16 00:36:52;;;;;;;1.50;0.82;;;9.90;94.00;;;;;;4184882;28;20045;-59
2024/04/16 00:38:53;;;;;;;1.88;0.30;;;9.80;93.70;;;;;;4182495;28;20049;-59
2024/04/16 00:40:55;;;;;;;0.95;0.30;;;9.80;93.80;;;;;;4192403;28;20422;-59
2024/04/16 00:42:57;;;;;;;0.50;0.40;;;9.80;93.80;;;;;;4181201;28;20090;-59
2024/04/16 00:44:58;;;;;;;1.15;0.43;;;9.90;93.90;;;;;;4187898;28;20413;-58
2024/04/16 00:47:00;;;;;;;1.75;0.40;;;9.80;94.20;;;;;;4186525;28;20052;-59
2024/04/16 00:49:02;;;;;;;2.25;0.93;;;9.90;94.00;;;;;;4182741;28;20040;-60
2024/04/16 00:51:04;;;;;;;0.60;0.22;;;9.90;94.00;;;;;;4192447;28;20044;-59
2024/04/16 00:53:05;;;;;;;1.92;0.40;;;9.90;94.30;;;;;;4181566;28;20049;-58
2024/04/16 00:55:07;;;;;;;1.85;0.75;;;9.80;93.90;;;;;;4185903;28;20095;-59
2024/04/16 00:57:08;;;;;;;0.52;0.28;;;9.90;94.10;;;;;;4188318;28;20430;-60
2024/04/16 00:59:11;;;;;;;2.88;0.45;;;10.00;94.30;;;;;;4181484;28;20422;-60
2024/04/16 01:01:12;;;;;;;1.05;0.40;;;10.10;94.00;;;;;;4193497;28;20123;-59
2024/04/16 01:03:13;;;;;;;0.75;0.55;;;10.10;93.30;;;;;;4181157;28;20041;-59
2024/04/16 01:05:15;;;;;;;1.50;0.40;;;10.00;93.60;;;;;;4184712;28;20045;-59
2024/04/16 01:07:17;;;;;;;2.10;0.40;;;10.00;93.50;;;;;;4189774;28;20051;-60
2024/04/16 01:09:19;;;;;;;1.92;0.63;;;10.10;94.10;;;;;;4180818;28;20407;-60
2024/04/16 01:11:23;;;;;;;2.95;1.17;;;10.10;93.40;;;;;;4191915;28;20591;-60
2024/04/16 01:13:25;;;;;;;1.45;1.00;;;10.10;93.30;;;;;;4181757;28;20620;-59
2024/04/16 01:15:27;;;;;;;2.78;0.65;;;10.10;93.60;;;;;;4183201;28;20448;-60
2024/04/16 01:17:29;;;;;;;1.45;0.85;;;10.00;93.50;;;;;;4190962;28;20076;-61
2024/04/16 01:19:30;;;;;;;6.18;1.50;;;10.00;93.60;;;;;;4181260;28;20049;-59
2024/04/16 01:21:31;;;;;;;6.35;1.45;;;10.00;93.50;;;;;;4190807;28;20394;-60
2024/04/16 01:23:34;;;;;;;4.93;1.35;;;10.10;93.30;;;;;;4196320;28;20056;-60
2024/04/16 01:25:35;;;;;;;1.52;0.52;;;10.00;93.60;;;;;;4194208;28;20094;-63
2024/04/16 01:27:36;;;;;;;6.40;2.15;;;10.00;93.90;;;;;;4192426;28;20156;-59
2024/04/16 01:29:37;;;;;;;11.77;0.73;;;10.00;93.80;;;;;;4181211;28;20049;-59
2024/04/16 01:31:38;;;;;;;2.28;0.80;;;9.90;93.60;;;;;;4188919;28;20060;-59
2024/04/16 01:33:39;;;;;;;3.72;0.80;;;9.80;93.80;;;;;;4185530;28;20103;-60
2024/04/16 01:35:41;;;;;;;1.38;0.50;;;9.80;94.40;;;;;;4168207;28;20071;-60
2024/04/16 01:37:42;;;;;;;0.73;0.45;;;9.80;94.10;;;;;;4194031;28;20514;-60
2024/04/16 01:39:44;;;;;;;2.60;0.65;;;9.80;94.10;;;;;;4180993;28;20049;-60
2024/04/16 01:41:45;;;;;;;4.82;1.25;;;9.70;93.70;;;;;;4186890;28;20409;-60
2024/04/16 01:43:46;;;;;;;1.48;0.60;;;9.80;94.00;;;;;;4188013;28;20048;-68
2024/04/16 01:45:47;;;;;;;2.35;0.70;;;9.80;94.30;;;;;;4165206;28;20045;-59
2024/04/16 01:47:49;;;;;;;7.32;2.55;;;9.80;94.00;;;;;;4192341;28;20166;-60
2024/04/16 01:49:50;;;;;;;4.28;0.82;;;9.80;94.10;;;;;;4180534;28;20053;-60
2024/04/16 01:51:51;;;;;;;1.00;0.50;;;9.80;94.00;;;;;;4184475;28;20072;-60
2024/04/16 01:53:52;;;;;;;12.57;1.10;;;9.70;93.80;;;;;;4188459;28;20496;-60
2024/04/16 01:55:55;;;;;;;12.32;1.13;;;9.70;94.20;;;;;;4180527;28;20084;-60
2024/04/16 01:57:56;;;;;;;2.03;0.88;;;9.70;94.40;;;;;;4191475;28;20435;-61
2024/04/16 01:59:57;;;;;;;1.50;0.95;;;9.70;94.00;;;;;;4181019;28;20091;-60
2024/04/16 02:01:58;;;;;;;0.98;0.52;;;9.80;94.10;;;;;;4182194;28;20091;-60
2024/04/16 02:03:59;;;;;;;1.13;0.68;;;9.70;93.90;;;;;;4190953;28;20048;-61
2024/04/16 02:06:03;;;;;;;0.82;0.30;;;9.60;94.00;;;;;;4180989;28;20402;-61
2024/04/16 02:08:05;;;;;;;0.77;0.35;;;9.60;94.00;;;;;;4189868;28;20497;-60
2024/04/16 02:10:10;;;;;;;1.10;0.65;;;9.60;94.50;;;;;;4182798;28;20056;-60
2024/04/16 02:12:12;;;;;;;2.03;1.33;;;9.70;94.20;;;;;;4181171;28;20188;-60
2024/04/16 02:14:14;;;;;;;3.40;1.45;;;9.70;94.00;;;;;;4191198;28;20040;-59
2024/04/16 02:16:15;;;;;;;1.35;0.47;;;9.60;94.20;;;;;;4180385;28;20511;-60
2024/04/16 02:18:16;;;;;;;4.15;1.10;;;9.50;94.00;;;;;;4172234;28;20479;-60
2024/04/16 02:20:17;;;;;;;2.58;0.80;;;9.50;93.90;;;;;;4183743;28;20049;-60
2024/04/16 02:22:18;;;;;;;6.75;2.58;;;9.50;94.20;;;;;;4180989;28;20048;-60
2024/04/16 02:24:20;;;;;;;0.98;0.50;;;9.40;94.40;;;;;;4190847;28;20061;-60
2024/04/16 02:26:21;;;;;;;1.55;0.50;;;9.60;94.90;;;;;;4163574;28;20041;-60
2024/04/16 02:28:24;;;;;;;8.98;2.83;;;9.60;94.10;;;;;;4186344;28;20055;-60
2024/04/16 02:30:25;;;;;;;2.65;0.38;;;9.60;94.40;;;;;;4185308;28;20544;-60
2024/04/16 02:32:26;;;;;;;3.35;1.25;;;9.60;94.40;;;;;;4164738;28;20103;-61
2024/04/16 02:34:27;;;;;;;7.63;1.83;;;9.50;94.20;;;;;;4191181;28;20056;-59
2024/04/16 02:36:28;;;;;;;2.25;1.65;;;9.60;94.20;;;;;;4179555;28;20056;-59
2024/04/16 02:38:38;;;;;;;3.50;0.65;;;9.50;94.30;;;;;;4183772;28;20102;-60
2024/04/16 02:40:40;;;;;;;0.93;0.30;;;9.50;94.80;;;;;;4189826;28;20494;-59
2024/04/16 02:42:41;;;;;;;1.60;0.40;;;9.50;94.20;;;;;;4195661;28;20044;-60
2024/04/16 02:44:43;;;;;;;1.20;0.80;;;9.50;94.30;;;;;;4183913;28;20111;-60
2024/04/16 02:46:44;;;;;;;1.88;1.17;;;9.60;94.70;;;;;;4196002;28;20052;-60
2024/04/16 02:48:45;;;;;;;1.58;0.40;;;9.60;94.60;;;;;;4191757;28;20049;-60
2024/04/16 02:50:47;;;;;;;5.85;1.35;;;9.70;94.40;;;;;;4187758;28;20123;-60
2024/04/16 02:52:48;;;;;;;4.88;0.95;;;9.70;94.20;;;;;;4196394;28;20086;-60
2024/04/16 02:54:49;;;;;;;0.47;0.30;;;9.70;94.60;;;;;;4184919;28;20436;-64
2024/04/16 02:56:50;;;;;;;0.70;0.40;;;9.60;94.30;;;;;;4195527;28;20045;-60
2024/04/16 02:58:52;;;;;;;2.17;0.55;;;9.60;94.20;;;;;;4193861;28;20398;-59
2024/04/16 03:00:54;;;;;;;1.77;1.02;;;9.50;94.10;;;;;;4185747;28;20550;-59
2024/04/16 03:02:55;;;;;;;0.73;0.30;;;9.50;94.30;;;;;;4195919;28;20044;-60
2024/04/16 03:04:56;;;;;;;1.77;0.93;;;9.60;94.40;;;;;;4185975;28;20083;-60
2024/04/16 03:06:58;;;;;;;1.55;0.57;;;9.70;94.40;;;;;;4192786;28;20150;-59
2024/04/16 03:08:59;;;;;;;5.90;1.20;;;9.70;94.00;;;;;;4194438;28;20045;-60
2024/04/16 03:11:01;;;;;;;1.55;0.47;;;9.60;94.30;;;;;;4184621;28;20047;-59
2024/04/16 03:13:03;;;;;;;1.73;0.47;;;9.60;93.80;;;;;;4196213;28;20044;-60
2024/04/16 03:15:04;;;;;;;1.65;0.98;;;9.50;94.20;;;;;;4187998;28;20064;-60
2024/04/16 03:17:07;;;;;;;2.67;0.98;;;9.50;94.10;;;;;;4191480;28;20048;-59
2024/04/16 03:19:08;;;;;;;1.55;0.93;;;9.40;94.00;;;;;;4193661;28;20106;-60
2024/04/16 03:21:10;;;;;;;1.70;0.93;;;9.50;94.40;;;;;;4184430;28;20101;-59
2024/04/16 03:23:11;;;;;;;4.40;0.75;;;9.50;94.30;;;;;;4185174;28;20053;-60
2024/04/16 03:25:12;;;;;;;2.97;1.58;;;9.50;94.30;;;;;;4185088;28;20385;-59
2024/04/16 03:27:13;;;;;;;0.65;0.63;;;9.50;94.20;;;;;;4195576;28;20052;-59
2024/04/16 03:29:15;;;;;;;2.25;0.52;;;9.40;94.00;;;;;;4179330;28;20430;-59
2024/04/16 03:31:16;;;;;;;2.65;0.52;;;9.50;94.10;;;;;;4188293;28;20052;-59
2024/04/16 03:33:19;;;;;;;5.55;1.23;;;9.60;94.40;;;;;;4179114;28;20426;-58
2024/04/16 03:35:20;;;;;;;1.08;0.35;;;9.60;94.30;;;;;;4182978;28;20041;-59
2024/04/16 03:37:22;;;;;;;1.67;0.35;;;9.50;94.10;;;;;;4187508;28;20466;-60
2024/04/16 03:39:23;;;;;;;0.70;0.47;;;9.50;94.50;;;;;;4179603;28;20475;-60
2024/04/16 03:41:24;;;;;;;18.35;1.95;;;9.50;94.60;;;;;;4190907;28;20387;-59
2024/04/16 03:43:26;;;;;;;1.20;0.40;;;9.60;94.70;;;;;;4179820;28;20049;-59
2024/04/16 03:45:27;;;;;;;2.05;1.25;;;9.60;94.40;;;;;;4185545;28;20047;-59
2024/04/16 03:47:29;;;;;;;1.90;0.70;;;9.60;94.30;;;;;;4195774;28;20067;-59
2024/04/16 03:49:31;;;;;;;2.78;0.70;;;9.60;94.20;;;;;;4195123;28;20053;-60
2024/04/16 03:51:32;;;;;;;3.03;1.02;;;9.60;94.50;;;;;;4185249;28;20051;-60
2024/04/16 03:53:33;;;;;;;2.28;0.57;;;9.60;94.60;;;;;;4193090;28;20044;-60
2024/04/16 03:55:36;;;;;;;3.78;2.05;;;9.50;94.80;;;;;;4194108;28;20410;-60
2024/04/16 03:57:37;;;;;;;1.25;0.32;;;9.60;95.20;;;;;;4184261;28;20036;-60
2024/04/16 04:02:00;;;;;;;14.90;2.25;;;9.70;95.20;;;;;;4150412;28;20041;-60
2024/04/16 04:04:01;;;;;;;0.43;0.40;;;9.60;94.90;;;;;;4159888;28;20045;-62
2024/04/16 04:06:04;;;;;;;4.18;1.23;;;9.60;95.20;;;;;;4159767;28;20042;-60
2024/04/16 04:08:06;;;;;;;2.55;1.20;;;9.50;95.20;;;;;;4151302;28;20073;-60
2024/04/16 04:10:07;;;;;;;2.83;0.93;;;9.50;94.80;;;;;;4161777;28;20042;-60
2024/04/16 04:12:09;;;;;;;1.35;0.57;;;9.50;95.10;;;;;;4152622;28;20046;-60
2024/04/16 04:14:10;;;;;;;3.17;0.47;;;9.50;95.00;;;;;;4142549;28;20221;-60
2024/04/16 04:16:13;;;;;;;1.23;0.40;;;9.50;95.00;;;;;;4160430;28;20042;-61
2024/04/16 04:18:15;;;;;;;1.92;0.55;;;9.50;95.10;;;;;;4150424;28;20613;-60
2024/04/16 04:20:16;;;;;;;1.30;0.60;;;9.60;95.00;;;;;;4164968;28;20053;-59
2024/04/16 04:22:18;;;;;;;3.55;1.45;;;9.60;95.10;;;;;;4160435;28;20056;-59
2024/04/16 04:24:19;;;;;;;0.63;0.32;;;9.60;95.10;;;;;;4164906;28;20102;-59
2024/04/16 04:26:20;;;;;;;8.43;1.85;;;9.60;95.40;;;;;;4149274;28;20462;-59
2024/04/16 04:28:21;;;;;;;3.28;1.27;;;9.70;95.30;;;;;;4159116;28;20115;-60
2024/04/16 04:30:22;;;;;;;2.40;0.50;;;9.80;95.20;;;;;;4148299;28;20132;-61
2024/04/16 04:32:25;;;;;;;1.70;0.68;;;9.70;95.10;;;;;;4154220;28;20520;-60
2024/04/16 04:34:26;;;;;;;1.00;0.40;;;9.80;95.10;;;;;;4158312;28;20056;-60
2024/04/16 04:36:28;;;;;;;3.15;0.47;;;9.70;95.00;;;;;;4164034;28;20080;-60
2024/04/16 04:38:31;;;;;;;4.13;1.60;;;9.70;95.60;;;;;;4171695;28;20046;-60
2024/04/16 04:40:33;;;;;;;1.25;0.88;;;9.80;95.80;;;;;;4198019;28;20064;-60
2024/04/16 04:42:34;;;;;;;1.95;0.98;;;9.70;95.90;;;;;;4193716;28;20064;-60
2024/04/16 04:44:35;;;;;;;3.65;0.55;;;9.70;96.30;;;;;;4189886;28;20045;-61
2024/04/16 04:46:36;;;;;;;4.47;1.58;;;9.70;96.20;;;;;;4197952;28;20044;-61
2024/04/16 04:48:37;;;;;;;1.27;1.17;;;9.70;96.30;;;;;;4185846;28;20573;-61
2024/04/16 04:50:38;;;;;;;1.95;0.82;;;9.80;96.60;;;;;;4197720;28;20446;-60
2024/04/16 04:52:39;;;;;;;1.20;0.93;;;9.70;96.60;;;;;;4196053;28;20044;-60
2024/04/16 04:54:42;;;;;;;0.73;0.50;;;9.70;96.60;;;;;;4187904;28;20067;-60
2024/04/16 04:56:43;;;;;;;1.63;0.85;;;9.70;96.30;;;;;;4197830;28;20123;-59
2024/04/16 04:58:45;;;;;;;2.05;1.40;;;9.70;96.60;;;;;;4187680;28;20447;-60
2024/04/16 05:00:47;;;;;;;2.03;0.57;;;9.70;96.30;;;;;;4194674;28;20490;-59
2024/04/16 05:02:48;;;;;;;1.10;0.40;;;9.60;96.30;;;;;;4196083;28;20044;-60
2024/04/16 05:04:49;;;;;;;1.55;0.70;;;9.60;96.70;;;;;;4186886;28;20486;-59
2024/04/16 05:06:50;;;;;;;2.03;1.08;;;9.70;97.00;;;;;;4197707;28;20048;-60
2024/04/16 05:08:52;;;;;;;0.52;0.35;;;9.70;96.80;;;;;;4173216;28;20091;-60
2024/04/16 05:10:54;;;;;;;0.38;0.25;;;9.80;96.70;;;;;;4192968;28;20041;-60
2024/04/16 05:12:56;;;;;;;2.50;1.35;;;9.80;96.40;;;;;;4195942;28;20090;-61
2024/04/16 05:14:57;;;;;;;0.73;0.30;;;9.80;96.20;;;;;;4186221;28;20474;-59
2024/04/16 05:16:58;;;;;;;1.67;0.70;;;9.80;96.50;;;;;;4197138;28;20045;-59
2024/04/16 05:18:59;;;;;;;1.95;0.38;;;9.90;96.60;;;;;;4174661;28;20045;-59
2024/04/16 05:21:01;;;;;;;0.85;0.43;;;9.80;96.10;;;;;;4191269;28;20492;-60
2024/04/16 05:23:02;;;;;;;0.85;0.30;;;9.90;96.30;;;;;;4196676;28;20166;-59
2024/04/16 05:25:04;;;;;;;2.60;0.80;;;9.90;96.40;;;;;;4192942;28;20047;-59
2024/04/16 05:27:07;;;;;;;0.75;0.43;;;9.90;96.60;;;;;;4181029;28;20048;-60
2024/04/16 05:29:08;;;;;;;0.63;0.38;;;9.90;96.50;;;;;;4185119;28;20063;-60
2024/04/16 05:31:09;;;;;;;1.65;1.05;;;9.90;96.50;;;;;;4188287;28;20063;-60
2024/04/16 05:33:10;;;;;;;3.60;0.70;;;10.00;96.50;;;;;;4180709;28;20053;-60
2024/04/16 05:35:11;;;;;;;15.73;2.80;;;10.00;96.50;;;;;;4192200;28;20414;-59
2024/04/16 05:37:13;;;;;;;7.07;1.98;;;9.90;96.50;;;;;;4181175;28;20056;-60
2024/04/16 05:39:14;;;;;;;6.97;2.05;;;9.90;96.50;;;;;;4182907;28;20041;-59
2024/04/16 05:41:16;;;;;;;0.95;0.70;;;9.90;96.80;;;;;;4190658;28;20052;-60
2024/04/16 05:43:19;;;;;;;2.28;1.20;;;9.80;96.60;;;;;;4180939;28;20127;-59
2024/04/16 05:45:20;;;;;;;6.25;0.47;;;9.90;96.80;;;;;;4190435;28;20048;-60
2024/04/16 05:47:21;;;;;;;1.08;0.60;;;9.80;96.40;;;;;;4211426;28;20051;-60
2024/04/16 05:49:22;;;;;;;0.60;0.47;;;9.90;96.70;;;;;;4193194;28;20045;-59
2024/04/16 05:51:24;;;;;;;0.88;0.63;;;9.90;96.60;;;;;;4185300;28;20091;-59
2024/04/16 05:53:25;;;;;;;1.77;1.10;;;9.90;96.50;;;;;;4197350;28;20056;-59
2024/04/16 05:55:28;;;;;;;7.03;1.83;;;10.00;96.60;;;;;;4188669;28;20045;-62
2024/04/16 05:57:29;;;;;;;1.00;0.63;;;10.00;96.30;;;;;;4192883;28;20052;-59
2024/04/16 05:59:31;;;;;;;1.48;0.80;;;10.00;96.40;;;;;;4197588;28;20117;-60
2024/04/16 06:01:33;;;;;;;2.60;1.25;;;10.00;96.10;;;;;;4185742;28;20517;-60
2024/04/16 06:03:34;;;;;;;6.35;0.68;;;10.10;96.20;;;;;;4197116;28;20049;-61
2024/04/16 06:05:35;;;;;;;0.95;0.50;;;10.10;96.40;;;;;;4190278;28;20041;-60
2024/04/16 06:07:36;;;;;;;1.83;0.70;;;10.10;96.20;;;;;;4190978;28;20088;-63
2024/04/16 06:09:37;;;;;;;5.55;2.15;;;10.10;96.20;;;;;;4195730;28;20048;-60
2024/04/16 06:11:39;;;;;;;1.10;0.45;;;10.20;96.50;;;;;;4185334;28;20053;-60
2024/04/16 06:13:40;;;;;;;4.88;0.45;;;10.30;96.40;;;;;;4196776;28;20056;-61
2024/04/16 06:15:44;;;;;;;1.42;0.40;;;10.40;96.20;;;;;;4192257;28;20037;-60
2024/04/16 06:17:45;;;;;;;1.40;0.70;;;10.30;96.10;;;;;;4189241;28;20054;-62
2024/04/16 06:19:46;;;;;;;4.22;1.38;;;10.30;96.20;;;;;;4196927;28;20513;-60
2024/04/16 06:21:50;;;;;;;1.35;1.02;;;10.30;96.20;;;;;;4184594;28;20048;-60
2024/04/16 06:23:51;;;;;;;3.87;1.13;;;10.40;96.10;;;;;;4195617;28;20060;-58
2024/04/16 06:25:52;;;;;;;0.98;0.47;;;10.40;96.00;;;;;;4191950;28;20045;-61
2024/04/16 06:27:54;;;;;;;1.88;0.70;;;10.50;96.00;;;;;;4188771;28;20462;-59
2024/04/16 06:29:56;;;;;;;2.88;0.77;;;10.60;95.90;;;;;;4180014;28;20045;-60
2024/04/16 06:31:58;;;;;;;1.23;0.63;;;10.70;95.70;;;;;;4167708;28;20042;-60
2024/04/16 06:33:59;;;;;;;3.95;0.88;;;10.80;95.80;;;;;;4194599;28;20052;-60
2024/04/16 06:36:01;;;;;;;5.28;1.58;;;10.80;95.60;;;;;;4194776;28;20098;-60
2024/04/16 06:38:02;;;;;;;1.02;0.32;;;10.80;95.30;;;;;;4185169;28;20037;-59
2024/04/16 06:40:03;;;;;;;1.70;0.93;;;10.80;96.00;;;;;;4196312;28;20117;-60
2024/04/16 06:42:05;;;;;;;5.43;0.77;;;10.70;96.20;;;;;;4185827;28;20132;-61
2024/04/16 06:44:06;;;;;;;1.95;0.90;;;10.80;96.70;;;;;;4192834;28;20090;-60
2024/04/16 06:46:07;;;;;;;1.67;0.90;;;10.80;96.70;;;;;;4194769;28;20040;-59
2024/04/16 06:48:10;;;;;;;1.52;0.93;;;10.80;96.60;;;;;;4185034;28;20120;-59
2024/04/16 06:50:11;;;;;;;1.17;0.93;;;10.80;96.40;;;;;;4196083;28;20044;-59
2024/04/16 06:52:12;;;;;;;3.08;0.98;;;10.90;96.40;;;;;;4196015;28;20055;-61
2024/04/16 06:54:13;;;;;;;1.75;0.80;;;11.10;96.40;;;;;;4190978;28;20067;-59
2024/04/16 06:56:14;;;;;;;2.05;1.05;;;11.20;95.70;;;;;;4194454;28;20387;-59
2024/04/16 06:58:15;;;;;;;1.52;0.32;;;11.20;96.20;;;;;;4184280;28;20507;-60
2024/04/16 07:00:17;;;;;;;8.38;0.70;;;11.30;95.70;;;;;;4196203;28;20044;-60
2024/04/16 07:02:18;;;;;;;1.63;0.80;;;11.40;95.90;;;;;;4190653;28;20074;-59
2024/04/16 07:04:20;;;;;;;0.82;0.52;;;11.30;95.00;;;;;;4188823;28;20052;-60
2024/04/16 07:06:21;;;;;;;3.05;1.73;;;11.20;95.70;;;;;;4195736;28;20051;-63
2024/04/16 07:08:22;;;;;;;3.22;0.65;;;11.10;95.40;;;;;;4192088;28;20075;-60
2024/04/16 07:10:23;;;;;;;2.03;0.50;;;11.00;95.30;;;;;;4195828;28;20102;-60
2024/04/16 07:12:25;;;;;;;1.38;1.27;;;11.20;95.90;;;;;;4181942;28;20048;-60
2024/04/16 07:14:27;;;;;;;1.30;0.50;;;11.30;95.80;;;;;;4188752;28;20049;-60
2024/04/16 07:16:29;;;;;;;1.05;0.40;;;11.30;95.60;;;;;;4179500;28;20079;-59
2024/04/16 07:18:30;;;;;;;1.45;0.40;;;11.30;94.90;;;;;;4189646;28;20076;-58
2024/04/16 07:20:33;;;;;;;2.30;0.75;;;11.30;94.60;;;;;;4181150;28;20067;-61
2024/04/16 07:22:34;;;;;;;3.40;0.80;;;11.30;94.80;;;;;;4184083;28;20057;-59
2024/04/16 07:24:36;;;;;;;3.05;1.23;;;11.30;95.20;;;;;;4185112;28;20045;-59
2024/04/16 07:26:37;;;;;;;1.90;0.65;;;11.30;95.60;;;;;;4179146;28;20102;-59
2024/04/16 07:28:38;;;;;;;0.45;0.40;;;11.30;95.60;;;;;;4186364;28;20442;-60
2024/04/16 07:30:40;;;;;;;2.47;0.95;;;11.30;96.00;;;;;;4192451;28;20432;-59
2024/04/16 07:32:41;;;;;;;7.65;0.68;;;11.30;96.20;;;;;;4194121;28;20049;-59
2024/04/16 07:34:43;;;;;;;0.47;0.47;;;11.10;96.00;;;;;;4184197;28;20403;-63
2024/04/16 07:36:45;;;;;;;7.93;1.73;;;11.20;96.90;;;;;;4196005;28;20114;-60
2024/04/16 07:38:47;;;;;;;1.33;0.40;;;11.20;97.10;;;;;;4188132;28;20045;-60
2024/04/16 07:40:53;;;;;;;2.80;0.43;;;11.20;96.70;;;;;;4190171;28;20067;-60
2024/04/16 07:42:54;;;;;;;6.03;0.95;;;11.20;96.70;;;;;;4193999;28;20049;-60
2024/04/16 07:44:55;;;;;;;8.57;2.03;;;11.20;97.30;;;;;;4184363;28;20063;-60
2024/04/16 07:46:59;;;;;;;2.22;0.50;;;11.10;97.90;;;;;;4195753;28;20040;-60
2024/04/16 07:49:00;;;;;;;2.65;1.00;;;11.20;97.70;;;;;;4188980;28;20123;-61
2024/04/16 07:51:02;;;;;;;2.88;0.82;;;11.20;97.40;;;;;;4189608;28;20102;-60
2024/04/16 07:53:04;;;;;;;0.80;0.32;;;11.30;97.90;;;;;;4196047;28;20041;-60
2024/04/16 07:55:08;;;;;;;0.80;0.30;;;11.20;97.50;;;;;;4187019;28;20378;-60
2024/04/16 07:57:09;;;;;;;2.17;1.10;;;11.20;97.30;;;;;;4198937;28;20048;-62
2024/04/16 07:59:10;;;;;;;1.05;0.95;;;11.20;97.60;;;;;;4193746;28;20536;-61
2024/04/16 08:01:14;;;;;;;3.05;1.30;;;11.50;97.70;;;;;;4191073;28;20048;-60
2024/04/16 08:03:15;;;;;;;0.40;0.40;;;11.50;97.20;;;;;;4198982;28;20079;-61
2024/04/16 08:05:16;;;;;;;0.63;0.20;;;11.50;97.20;;;;;;4186027;28;20223;-61
2024/04/16 08:07:17;;;;;;;0.60;0.38;;;11.40;97.70;;;;;;4199082;28;20382;-60
2024/04/16 08:09:20;;;;;;;1.80;0.52;;;11.40;97.60;;;;;;4195113;28;20060;-61
2024/04/16 08:11:21;;;;;;;2.95;1.05;;;11.50;97.10;;;;;;4190124;28;20040;-63
2024/04/16 08:13:22;;;;;;;6.05;1.55;;;11.80;97.60;;;;;;4198881;28;20097;-60
2024/04/16 08:15:23;;;;;;;1.00;0.28;;;11.90;97.50;;;;;;4188271;28;20045;-61
2024/04/16 08:17:25;;;;;;;0.50;0.30;;;11.90;96.60;;;;;;4196968;28;20059;-60
2024/04/16 08:19:27;;;;;;;5.65;1.38;;;11.90;96.80;;;;;;4195263;28;20434;-62
2024/04/16 08:21:28;;;;;;;0.60;0.60;;;12.00;96.80;;;;;;4192996;28;20044;-60
2024/04/16 08:23:29;;;;;;;1.50;0.98;;;12.00;95.70;;;;;;4194378;28;20057;-60
2024/04/16 08:25:32;;;;;;;5.78;0.93;;;11.90;95.80;;;;;;4193911;28;20440;-60
2024/04/16 08:27:33;;;;;;;0.98;0.38;;;12.00;96.00;;;;;;4185276;28;20136;-60
2024/04/16 08:29:34;;;;;;;3.85;1.33;;;12.20;96.00;;;;;;4184107;28;20094;-61
2024/04/16 08:31:35;;;;;;;0.82;0.43;;;12.40;95.70;;;;;;4189225;28;20090;-62
2024/04/16 08:33:36;;;;;;;0.68;0.28;;;12.50;95.10;;;;;;4198486;28;20045;-60
2024/04/16 08:35:40;;;;;;;0.70;0.40;;;12.50;96.20;;;;;;4191157;28;20040;-61
2024/04/16 08:37:41;;;;;;;0.50;0.50;;;12.60;96.10;;;;;;4176651;28;20053;-60
2024/04/16 08:39:42;;;;;;;1.55;0.85;;;12.50;95.70;;;;;;4196292;28;20594;-60
2024/04/16 08:41:45;;;;;;;0.77;0.32;;;12.60;95.90;;;;;;4186270;28;20106;-66
2024/04/16 08:43:48;;;;;;;9.93;0.75;;;12.30;95.40;;;;;;4198124;28;20438;-59
2024/04/16 08:45:51;;;;;;;1.27;0.40;;;12.30;96.00;;;;;;4192265;28;20048;-61
2024/04/16 08:47:52;;;;;;;1.48;1.08;;;12.40;95.60;;;;;;4191562;28;20052;-59
2024/04/16 08:49:55;;;;;;;0.60;0.50;;;12.50;95.50;;;;;;4197455;28;20056;-61
2024/04/16 08:51:57;;;;;;;3.78;2.10;;;12.10;94.90;;;;;;4185957;28;20049;-60
2024/04/16 08:53:59;;;;;;;0.32;0.17;;;12.10;96.20;;;;;;4197739;28;20127;-60
2024/04/16 08:56:01;;;;;;;1.45;0.75;;;12.00;95.70;;;;;;4193275;28;20044;-60
2024/04/16 08:58:04;;;;;;;0.68;0.25;;;11.90;95.70;;;;;;4189792;28;20055;-61
2024/04/16 09:00:06;;;;;;;2.05;1.27;;;11.80;96.20;;;;;;4198135;28;20470;-60
2024/04/16 09:02:08;;;;;;;0.70;0.30;;;11.90;96.20;;;;;;4185942;28;20048;-61
2024/04/16 09:04:09;;;;;;;2.38;0.43;;;11.90;95.80;;;;;;4197497;28;20048;-60
2024/04/16 09:06:11;;;;;;;0.32;0.20;;;11.90;95.90;;;;;;4194806;28;20044;-60
2024/04/16 09:08:12;;;;;;;0.82;0.80;;;12.20;96.90;;;;;;4188267;28;20516;-60
2024/04/16 09:10:14;;;;;;;0.80;0.55;;;12.40;96.40;;;;;;4197739;28;20048;-61
2024/04/16 09:12:15;;;;;;;0.82;0.50;;;12.40;96.10;;;;;;4186912;28;20052;-60
2024/04/16 09:14:18;;;;;;;1.55;0.30;;;12.50;95.60;;;;;;4195937;28;20091;-60
2024/04/16 09:16:20;;;;;;;4.03;0.30;;;12.50;94.80;;;;;;4196307;28;20052;-60
2024/04/16 09:18:24;;;;;;;0.13;0.10;;;12.60;95.20;;;;;;4186677;28;20115;-60
2024/04/16 09:20:25;;;;;;;0.73;0.13;;;12.60;95.10;;;;;;4197623;28;20475;-62
2024/04/16 09:22:27;;;;;;;0.45;0.13;;;12.50;95.10;;;;;;4191831;28;20048;-60
2024/04/16 09:24:28;;;;;;;0.75;0.35;;;12.60;94.80;;;;;;4194821;28;20056;-61
2024/04/16 09:26:32;;;;;;;0.95;0.20;;;12.80;95.50;;;;;;4180091;28;20377;-60
2024/04/16 09:28:34;;;;;;;0.47;0.20;;;12.90;95.50;;;;;;4186501;28;20083;-60
2024/04/16 09:30:36;;;;;;;0.30;0.30;;;12.80;95.00;;;;;;4197809;28;20106;-61
2024/04/16 09:32:38;;;;;;;0.93;0.40;;;13.10;95.10;;;;;;4190623;28;20041;-60
2024/04/16 09:34:42;;;;;;;0.30;0.30;;;13.20;94.60;;;;;;4197747;28;20402;-60
2024/04/16 09:36:50;;;;;;;0.85;0.30;;;13.30;94.90;;;;;;4194859;28;20045;-60
2024/04/16 09:38:51;;;;;;;1.85;0.70;;;13.10;94.10;;;;;;4191645;28;20091;-60
2024/04/16 09:40:53;;;;;;;1.65;0.75;;;13.20;94.20;;;;;;4180643;28;20171;-59
2024/04/16 09:42:55;;;;;;;2.22;0.43;;;13.40;94.30;;;;;;4188126;28;20040;-60
2024/04/16 09:44:58;;;;;;;0.65;0.45;;;13.30;94.30;;;;;;4169308;28;20053;-60
2024/04/16 09:47:02;;;;;;;1.35;0.40;;;13.30;93.30;;;;;;4182400;28;20049;-59
2024/04/16 09:49:04;;;;;;;1.67;1.05;;;13.40;93.90;;;;;;4192384;28;20048;-66
2024/04/16 09:51:05;;;;;;;1.00;0.60;;;13.50;93.50;;;;;;4181145;28;20052;-60
2024/04/16 09:53:08;;;;;;;4.43;1.00;;;13.50;93.60;;;;;;4186783;28;20159;-60
2024/04/16 09:55:10;;;;;;;3.20;1.20;;;13.60;93.90;;;;;;4186658;28;20045;-60
2024/04/16 09:57:11;;;;;;;0.90;0.35;;;13.70;93.80;;;;;;4181676;28;20394;-60
2024/04/16 09:59:13;;;;;;;2.40;0.30;;;13.80;93.90;;;;;;4191798;28;20053;-60
2024/04/16 10:01:15;;;;;;;0.70;0.30;;;13.60;93.10;;;;;;4180694;28;20572;-60
2024/04/16 10:03:20;;;;;;;11.48;1.45;;;13.60;93.50;;;;;;4184837;28;20040;-60
2024/04/16 10:05:21;;;;;;;2.10;1.00;;;13.50;93.70;;;;;;4187230;28;20474;-61
2024/04/16 10:07:22;;;;;;;0.73;0.30;;;13.20;93.80;;;;;;4180423;28;20044;-61
2024/04/16 10:09:24;;;;;;;0.60;0.52;;;12.30;95.90;;;;;;4184299;28;20509;-60
2024/04/16 10:11:25;;;;;;;0.22;0.10;;;11.70;96.00;;;;;;4180395;28;20049;-60
2024/04/16 10:13:27;;;;;;;2.58;0.30;;;11.40;97.40;;;;;;4183164;28;20146;-60
2024/04/16 10:15:28;;;;;;;0.50;0.17;;;11.20;97.40;;;;;;4172555;28;20041;-60
2024/04/16 10:17:30;;;;;;;0.30;0.20;;;11.20;97.80;;;;;;4179377;28;20048;-60
2024/04/16 10:19:33;;;;;;;0.93;0.25;;;11.20;96.90;;;;;;4190237;28;20090;-60
2024/04/16 10:21:38;;;;;;;0.28;0.20;;;11.40;97.30;;;;;;4180972;28;20575;-60
2024/04/16 10:23:39;;;;;;;0.28;0.10;;;11.50;97.30;;;;;;4189511;28;20061;-60
2024/04/16 10:25:48;;;;;;;0.40;0.40;;;11.60;96.40;;;;;;4190569;28;20060;-61
2024/04/16 10:27:49;;;;;;;1.65;0.40;;;11.90;96.90;;;;;;4180370;28;20056;-60
2024/04/16 10:30:05;;;;;;;0.77;0.20;;;11.90;96.30;;;;;;4184983;28;20049;-60
2024/04/16 10:32:06;;;;;;;1.85;0.13;;;12.00;95.90;;;;;;4180005;28;20041;-60
2024/04/16 10:34:17;;;;;;;0.52;0.25;;;12.10;95.80;;;;;;4183655;28;20036;-60
2024/04/16 10:36:21;;;;;;;0.13;0.13;;;12.30;96.00;;;;;;4188350;28;20442;-62
2024/04/16 10:38:23;;;;;;;0.25;0.10;;;12.30;94.60;;;;;;4196305;28;20500;-60